sensor_id;sensor_type;location;lat;lon;timestamp;P1;durP1;ratioP1;P2;durP2;ratioP2
12232;SDS011;6179;51.748;8.728;2022-12-07T00:04:50;34.13;;;13.77;;
12232;SDS011;6179;51.748;8.728;2022-12-07T00:10:51;24.57;;;14.10;;
12232;SDS011;6179;51.748;8.728;2022-12-07T00:16:52;22.80;;;13.20;;
12232;SDS011;6179;51.748;8.728;2022-12-07T00:22:53;35.53;;;15.63;;
12232;SDS011;6179;51.748;8.728;2022-12-07T00:28:57;43.50;;;17.53;;
12232;SDS011;6179;51.748;8.728;2022-12-07T00:35:01;45.23;;;16.50;;
12232;SDS011;6179;51.748;8.728;2022-12-07T00:41:03;40.87;;;17.10;;
12232;SDS011;6179;51.748;8.728;2022-12-07T00:47:12;43.93;;;18.00;;
12232;SDS011;6179;51.748;8.728;2022-12-07T00:53:13;36.83;;;17.40;;
12232;SDS011;6179;51.748;8.728;2022-12-07T00:59:14;50.23;;;22.30;;
12232;SDS011;6179;51.748;8.728;2022-12-07T01:05:15;38.93;;;17.63;;
12232;SDS011;6179;51.748;8.728;2022-12-07T01:11:18;54.73;;;19.87;;
12232;SDS011;6179;51.748;8.728;2022-12-07T01:17:22;56.23;;;18.10;;
12232;SDS011;6179;51.748;8.728;2022-12-07T01:23:23;42.13;;;19.30;;
12232;SDS011;6179;51.748;8.728;2022-12-07T01:29:24;39.07;;;16.80;;
12232;SDS011;6179;51.748;8.728;2022-12-07T01:35:24;32.70;;;17.10;;
12232;SDS011;6179;51.748;8.728;2022-12-07T01:41:26;38.13;;;17.50;;
12232;SDS011;6179;51.748;8.728;2022-12-07T01:47:31;38.97;;;17.80;;
12232;SDS011;6179;51.748;8.728;2022-12-07T01:53:32;36.20;;;17.40;;
12232;SDS011;6179;51.748;8.728;2022-12-07T01:59:38;37.83;;;17.20;;
12232;SDS011;6179;51.748;8.728;2022-12-07T02:05:41;30.00;;;16.07;;
12232;SDS011;6179;51.748;8.728;2022-12-07T02:11:43;39.23;;;16.93;;
12232;SDS011;6179;51.748;8.728;2022-12-07T02:17:50;31.77;;;14.97;;
12232;SDS011;6179;51.748;8.728;2022-12-07T02:31:05;29.40;;;12.30;;
12232;SDS011;6179;51.748;8.728;2022-12-07T02:44:27;21.50;;;11.30;;
12232;SDS011;6179;51.748;8.728;2022-12-07T02:50:30;21.13;;;12.30;;
12232;SDS011;6179;51.748;8.728;2022-12-07T02:56:36;25.53;;;11.57;;
12232;SDS011;6179;51.748;8.728;2022-12-07T03:08:57;17.93;;;9.03;;
12232;SDS011;6179;51.748;8.728;2022-12-07T03:15:22;12.50;;;7.50;;
12232;SDS011;6179;51.748;8.728;2022-12-07T03:21:33;19.47;;;9.17;;
12232;SDS011;6179;51.748;8.728;2022-12-07T03:34:15;22.60;;;9.93;;
12232;SDS011;6179;51.748;8.728;2022-12-07T03:40:40;18.40;;;7.83;;
12232;SDS011;6179;51.748;8.728;2022-12-07T03:47:08;17.23;;;7.57;;
12232;SDS011;6179;51.748;8.728;2022-12-07T03:53:27;20.43;;;6.93;;
12232;SDS011;6179;51.748;8.728;2022-12-07T03:59:42;14.93;;;6.03;;
12232;SDS011;6179;51.748;8.728;2022-12-07T04:05:43;8.13;;;4.57;;
12232;SDS011;6179;51.748;8.728;2022-12-07T04:11:45;23.70;;;5.20;;
12232;SDS011;6179;51.748;8.728;2022-12-07T04:17:46;9.53;;;5.80;;
12232;SDS011;6179;51.748;8.728;2022-12-07T04:23:48;5.63;;;4.10;;
12232;SDS011;6179;51.748;8.728;2022-12-07T04:29:48;7.17;;;4.20;;
12232;SDS011;6179;51.748;8.728;2022-12-07T04:35:49;11.33;;;5.50;;
12232;SDS011;6179;51.748;8.728;2022-12-07T04:41:50;7.70;;;3.93;;
12232;SDS011;6179;51.748;8.728;2022-12-07T04:47:51;13.10;;;6.03;;
12232;SDS011;6179;51.748;8.728;2022-12-07T04:53:52;8.90;;;6.47;;
12232;SDS011;6179;51.748;8.728;2022-12-07T04:59:54;9.03;;;3.50;;
12232;SDS011;6179;51.748;8.728;2022-12-07T05:05:55;4.57;;;3.17;;
12232;SDS011;6179;51.748;8.728;2022-12-07T05:11:55;6.00;;;4.13;;
12232;SDS011;6179;51.748;8.728;2022-12-07T05:17:56;11.20;;;3.67;;
12232;SDS011;6179;51.748;8.728;2022-12-07T05:23:57;12.50;;;5.37;;
12232;SDS011;6179;51.748;8.728;2022-12-07T05:29:58;9.57;;;5.37;;
12232;SDS011;6179;51.748;8.728;2022-12-07T05:35:58;15.27;;;7.33;;
12232;SDS011;6179;51.748;8.728;2022-12-07T05:42:05;16.83;;;6.70;;
12232;SDS011;6179;51.748;8.728;2022-12-07T05:48:14;16.23;;;7.77;;
12232;SDS011;6179;51.748;8.728;2022-12-07T05:54:15;10.93;;;5.93;;
12232;SDS011;6179;51.748;8.728;2022-12-07T06:00:16;8.33;;;5.60;;
12232;SDS011;6179;51.748;8.728;2022-12-07T06:06:17;19.97;;;6.17;;
12232;SDS011;6179;51.748;8.728;2022-12-07T06:12:18;16.70;;;6.57;;
12232;SDS011;6179;51.748;8.728;2022-12-07T06:18:33;29.20;;;7.57;;
12232;SDS011;6179;51.748;8.728;2022-12-07T06:24:34;12.37;;;5.70;;
12232;SDS011;6179;51.748;8.728;2022-12-07T06:30:35;10.13;;;5.10;;
12232;SDS011;6179;51.748;8.728;2022-12-07T06:36:36;27.10;;;8.87;;
12232;SDS011;6179;51.748;8.728;2022-12-07T06:42:38;9.43;;;5.43;;
12232;SDS011;6179;51.748;8.728;2022-12-07T06:48:38;12.07;;;5.73;;
12232;SDS011;6179;51.748;8.728;2022-12-07T06:54:39;8.70;;;5.20;;
12232;SDS011;6179;51.748;8.728;2022-12-07T07:00:40;16.73;;;5.60;;
12232;SDS011;6179;51.748;8.728;2022-12-07T07:06:41;15.50;;;7.87;;
12232;SDS011;6179;51.748;8.728;2022-12-07T07:12:42;13.57;;;6.43;;
12232;SDS011;6179;51.748;8.728;2022-12-07T07:18:42;22.87;;;6.20;;
12232;SDS011;6179;51.748;8.728;2022-12-07T07:24:43;17.40;;;6.67;;
12232;SDS011;6179;51.748;8.728;2022-12-07T07:30:44;20.90;;;6.70;;
12232;SDS011;6179;51.748;8.728;2022-12-07T07:36:45;19.20;;;6.23;;
12232;SDS011;6179;51.748;8.728;2022-12-07T07:42:50;16.83;;;5.37;;
12232;SDS011;6179;51.748;8.728;2022-12-07T07:48:53;14.90;;;5.87;;
12232;SDS011;6179;51.748;8.728;2022-12-07T07:54:53;10.77;;;5.17;;
12232;SDS011;6179;51.748;8.728;2022-12-07T08:00:54;17.77;;;5.37;;
12232;SDS011;6179;51.748;8.728;2022-12-07T08:06:56;10.50;;;4.13;;
12232;SDS011;6179;51.748;8.728;2022-12-07T08:12:58;11.10;;;4.63;;
12232;SDS011;6179;51.748;8.728;2022-12-07T08:19:10;14.73;;;5.40;;
12232;SDS011;6179;51.748;8.728;2022-12-07T08:25:12;20.23;;;4.33;;
12232;SDS011;6179;51.748;8.728;2022-12-07T08:31:14;10.90;;;5.07;;
12232;SDS011;6179;51.748;8.728;2022-12-07T08:37:18;9.23;;;3.77;;
12232;SDS011;6179;51.748;8.728;2022-12-07T08:43:19;9.00;;;5.23;;
12232;SDS011;6179;51.748;8.728;2022-12-07T08:49:20;18.53;;;6.20;;
12232;SDS011;6179;51.748;8.728;2022-12-07T08:55:29;10.97;;;4.40;;
12232;SDS011;6179;51.748;8.728;2022-12-07T09:01:30;5.33;;;2.90;;
12232;SDS011;6179;51.748;8.728;2022-12-07T09:07:32;11.77;;;4.60;;
12232;SDS011;6179;51.748;8.728;2022-12-07T09:13:34;8.27;;;4.40;;
12232;SDS011;6179;51.748;8.728;2022-12-07T09:19:35;7.37;;;3.93;;
12232;SDS011;6179;51.748;8.728;2022-12-07T09:25:36;7.23;;;2.87;;
12232;SDS011;6179;51.748;8.728;2022-12-07T09:31:37;4.10;;;2.40;;
12232;SDS011;6179;51.748;8.728;2022-12-07T09:37:38;9.93;;;2.23;;
12232;SDS011;6179;51.748;8.728;2022-12-07T09:43:39;7.63;;;2.73;;
12232;SDS011;6179;51.748;8.728;2022-12-07T09:49:41;9.03;;;2.27;;
12232;SDS011;6179;51.748;8.728;2022-12-07T09:55:42;4.23;;;3.60;;
12232;SDS011;6179;51.748;8.728;2022-12-07T10:01:47;7.23;;;2.70;;
12232;SDS011;6179;51.748;8.728;2022-12-07T10:07:51;9.37;;;2.83;;
12232;SDS011;6179;51.748;8.728;2022-12-07T10:13:52;3.93;;;2.70;;
12232;SDS011;6179;51.748;8.728;2022-12-07T10:20:05;8.23;;;3.10;;
12232;SDS011;6179;51.748;8.728;2022-12-07T10:26:35;5.43;;;3.90;;
12232;SDS011;6179;51.748;8.728;2022-12-07T10:32:38;7.67;;;1.63;;
12232;SDS011;6179;51.748;8.728;2022-12-07T10:38:39;9.90;;;4.10;;
12232;SDS011;6179;51.748;8.728;2022-12-07T10:44:48;5.37;;;3.30;;
12232;SDS011;6179;51.748;8.728;2022-12-07T10:58:27;9.47;;;4.40;;
12232;SDS011;6179;51.748;8.728;2022-12-07T11:04:44;5.03;;;2.90;;
12232;SDS011;6179;51.748;8.728;2022-12-07T11:11:00;14.00;;;4.00;;
12232;SDS011;6179;51.748;8.728;2022-12-07T11:17:19;3.20;;;2.07;;
12232;SDS011;6179;51.748;8.728;2022-12-07T11:29:59;3.57;;;3.27;;
12232;SDS011;6179;51.748;8.728;2022-12-07T11:42:39;8.30;;;3.10;;
12232;SDS011;6179;51.748;8.728;2022-12-07T11:48:51;5.90;;;3.17;;
12232;SDS011;6179;51.748;8.728;2022-12-07T11:55:25;12.10;;;3.73;;
12232;SDS011;6179;51.748;8.728;2022-12-07T12:08:18;4.33;;;2.00;;
12232;SDS011;6179;51.748;8.728;2022-12-07T12:20:54;2.93;;;2.47;;
12232;SDS011;6179;51.748;8.728;2022-12-07T12:27:03;20.20;;;2.33;;
12232;SDS011;6179;51.748;8.728;2022-12-07T12:33:14;9.83;;;1.90;;
12232;SDS011;6179;51.748;8.728;2022-12-07T12:39:29;6.83;;;2.43;;
12232;SDS011;6179;51.748;8.728;2022-12-07T12:45:31;7.27;;;2.00;;
12232;SDS011;6179;51.748;8.728;2022-12-07T12:51:40;2.83;;;1.20;;
12232;SDS011;6179;51.748;8.728;2022-12-07T13:04:26;4.10;;;1.63;;
12232;SDS011;6179;51.748;8.728;2022-12-07T13:10:50;10.73;;;1.20;;
12232;SDS011;6179;51.748;8.728;2022-12-07T13:16:51;3.53;;;2.20;;
12232;SDS011;6179;51.748;8.728;2022-12-07T13:22:52;7.63;;;1.03;;
12232;SDS011;6179;51.748;8.728;2022-12-07T13:35:27;4.97;;;1.53;;
12232;SDS011;6179;51.748;8.728;2022-12-07T13:41:37;1.07;;;0.80;;
12232;SDS011;6179;51.748;8.728;2022-12-07T13:47:43;7.40;;;1.30;;
12232;SDS011;6179;51.748;8.728;2022-12-07T13:54:01;1.93;;;0.87;;
12232;SDS011;6179;51.748;8.728;2022-12-07T14:00:15;5.80;;;1.70;;
12232;SDS011;6179;51.748;8.728;2022-12-07T14:06:23;17.67;;;1.77;;
12232;SDS011;6179;51.748;8.728;2022-12-07T14:12:28;6.47;;;1.37;;
12232;SDS011;6179;51.748;8.728;2022-12-07T14:18:36;13.07;;;2.23;;
12232;SDS011;6179;51.748;8.728;2022-12-07T14:24:43;4.70;;;1.60;;
12232;SDS011;6179;51.748;8.728;2022-12-07T14:30:44;1.33;;;1.00;;
12232;SDS011;6179;51.748;8.728;2022-12-07T14:36:45;1.37;;;1.13;;
12232;SDS011;6179;51.748;8.728;2022-12-07T14:42:46;6.10;;;0.90;;
12232;SDS011;6179;51.748;8.728;2022-12-07T14:48:51;17.13;;;1.00;;
12232;SDS011;6179;51.748;8.728;2022-12-07T14:54:52;12.20;;;2.90;;
12232;SDS011;6179;51.748;8.728;2022-12-07T15:00:53;6.67;;;1.10;;
12232;SDS011;6179;51.748;8.728;2022-12-07T15:06:54;5.60;;;0.97;;
12232;SDS011;6179;51.748;8.728;2022-12-07T15:13:01;1.50;;;0.83;;
12232;SDS011;6179;51.748;8.728;2022-12-07T15:19:22;5.57;;;1.47;;
12232;SDS011;6179;51.748;8.728;2022-12-07T15:25:25;3.80;;;1.80;;
12232;SDS011;6179;51.748;8.728;2022-12-07T15:31:26;15.83;;;1.13;;
12232;SDS011;6179;51.748;8.728;2022-12-07T15:37:27;1.17;;;0.70;;
12232;SDS011;6179;51.748;8.728;2022-12-07T15:43:28;20.13;;;1.73;;
12232;SDS011;6179;51.748;8.728;2022-12-07T15:49:47;4.00;;;1.33;;
12232;SDS011;6179;51.748;8.728;2022-12-07T15:55:48;6.20;;;1.87;;
12232;SDS011;6179;51.748;8.728;2022-12-07T16:01:48;7.77;;;2.60;;
12232;SDS011;6179;51.748;8.728;2022-12-07T16:07:49;4.03;;;2.10;;
12232;SDS011;6179;51.748;8.728;2022-12-07T16:13:50;11.50;;;2.50;;
12232;SDS011;6179;51.748;8.728;2022-12-07T16:19:51;4.03;;;1.33;;
12232;SDS011;6179;51.748;8.728;2022-12-07T16:25:53;4.60;;;3.83;;
12232;SDS011;6179;51.748;8.728;2022-12-07T16:31:54;8.70;;;1.37;;
12232;SDS011;6179;51.748;8.728;2022-12-07T16:37:55;4.17;;;1.70;;
12232;SDS011;6179;51.748;8.728;2022-12-07T16:43:56;2.87;;;1.50;;
12232;SDS011;6179;51.748;8.728;2022-12-07T16:49:57;4.27;;;2.57;;
12232;SDS011;6179;51.748;8.728;2022-12-07T16:55:57;12.00;;;3.60;;
12232;SDS011;6179;51.748;8.728;2022-12-07T17:01:58;12.43;;;2.83;;
12232;SDS011;6179;51.748;8.728;2022-12-07T17:07:59;20.17;;;5.77;;
12232;SDS011;6179;51.748;8.728;2022-12-07T17:14:02;18.43;;;8.27;;
12232;SDS011;6179;51.748;8.728;2022-12-07T17:20:24;5.37;;;2.97;;
12232;SDS011;6179;51.748;8.728;2022-12-07T17:26:27;7.77;;;2.40;;
12232;SDS011;6179;51.748;8.728;2022-12-07T17:32:29;14.77;;;4.90;;
12232;SDS011;6179;51.748;8.728;2022-12-07T17:38:29;7.00;;;2.73;;
12232;SDS011;6179;51.748;8.728;2022-12-07T17:44:30;10.60;;;3.07;;
12232;SDS011;6179;51.748;8.728;2022-12-07T17:50:31;7.33;;;1.60;;
12232;SDS011;6179;51.748;8.728;2022-12-07T17:56:51;5.60;;;2.57;;
12232;SDS011;6179;51.748;8.728;2022-12-07T18:02:52;10.30;;;3.70;;
12232;SDS011;6179;51.748;8.728;2022-12-07T18:08:52;10.63;;;3.97;;
12232;SDS011;6179;51.748;8.728;2022-12-07T18:14:53;7.13;;;2.40;;
12232;SDS011;6179;51.748;8.728;2022-12-07T18:20:54;13.23;;;2.60;;
12232;SDS011;6179;51.748;8.728;2022-12-07T18:26:55;17.17;;;4.50;;
12232;SDS011;6179;51.748;8.728;2022-12-07T18:32:56;10.47;;;3.60;;
12232;SDS011;6179;51.748;8.728;2022-12-07T18:38:56;14.70;;;5.23;;
12232;SDS011;6179;51.748;8.728;2022-12-07T18:44:57;12.23;;;5.30;;
12232;SDS011;6179;51.748;8.728;2022-12-07T18:51:02;8.93;;;4.10;;
12232;SDS011;6179;51.748;8.728;2022-12-07T18:57:04;7.17;;;5.00;;
12232;SDS011;6179;51.748;8.728;2022-12-07T19:03:05;10.13;;;4.37;;
12232;SDS011;6179;51.748;8.728;2022-12-07T19:09:06;11.27;;;6.63;;
12232;SDS011;6179;51.748;8.728;2022-12-07T19:15:07;6.40;;;5.17;;
12232;SDS011;6179;51.748;8.728;2022-12-07T19:21:10;16.13;;;5.93;;
12232;SDS011;6179;51.748;8.728;2022-12-07T19:27:11;16.40;;;6.90;;
12232;SDS011;6179;51.748;8.728;2022-12-07T19:33:13;19.13;;;6.60;;
12232;SDS011;6179;51.748;8.728;2022-12-07T19:39:14;14.93;;;5.80;;
12232;SDS011;6179;51.748;8.728;2022-12-07T19:45:15;18.53;;;9.27;;
12232;SDS011;6179;51.748;8.728;2022-12-07T19:51:16;9.97;;;6.30;;
12232;SDS011;6179;51.748;8.728;2022-12-07T19:57:17;15.70;;;5.63;;
12232;SDS011;6179;51.748;8.728;2022-12-07T20:03:18;9.17;;;5.40;;
12232;SDS011;6179;51.748;8.728;2022-12-07T20:09:19;15.97;;;5.90;;
12232;SDS011;6179;51.748;8.728;2022-12-07T20:15:20;8.77;;;5.90;;
12232;SDS011;6179;51.748;8.728;2022-12-07T20:21:21;10.60;;;4.67;;
12232;SDS011;6179;51.748;8.728;2022-12-07T20:27:23;12.10;;;5.00;;
12232;SDS011;6179;51.748;8.728;2022-12-07T20:33:23;11.10;;;5.40;;
12232;SDS011;6179;51.748;8.728;2022-12-07T20:39:24;11.60;;;5.50;;
12232;SDS011;6179;51.748;8.728;2022-12-07T20:45:25;10.13;;;5.07;;
12232;SDS011;6179;51.748;8.728;2022-12-07T20:51:27;26.43;;;6.77;;
12232;SDS011;6179;51.748;8.728;2022-12-07T20:57:28;9.60;;;5.00;;
12232;SDS011;6179;51.748;8.728;2022-12-07T21:03:29;13.80;;;4.83;;
12232;SDS011;6179;51.748;8.728;2022-12-07T21:09:30;8.67;;;4.67;;
12232;SDS011;6179;51.748;8.728;2022-12-07T21:15:31;16.30;;;5.90;;
12232;SDS011;6179;51.748;8.728;2022-12-07T21:21:32;9.43;;;6.33;;
12232;SDS011;6179;51.748;8.728;2022-12-07T21:27:33;13.83;;;6.97;;
12232;SDS011;6179;51.748;8.728;2022-12-07T21:33:34;15.53;;;7.43;;
12232;SDS011;6179;51.748;8.728;2022-12-07T21:39:35;19.10;;;8.10;;
12232;SDS011;6179;51.748;8.728;2022-12-07T21:45:36;11.57;;;6.17;;
12232;SDS011;6179;51.748;8.728;2022-12-07T21:51:37;14.57;;;5.63;;
12232;SDS011;6179;51.748;8.728;2022-12-07T21:57:39;17.57;;;8.20;;
12232;SDS011;6179;51.748;8.728;2022-12-07T22:03:40;15.63;;;8.00;;
12232;SDS011;6179;51.748;8.728;2022-12-07T22:09:41;15.73;;;6.20;;
12232;SDS011;6179;51.748;8.728;2022-12-07T22:15:41;19.90;;;9.43;;
12232;SDS011;6179;51.748;8.728;2022-12-07T22:21:42;12.03;;;6.00;;
12232;SDS011;6179;51.748;8.728;2022-12-07T22:27:43;8.60;;;6.23;;
12232;SDS011;6179;51.748;8.728;2022-12-07T22:33:44;12.80;;;5.83;;
12232;SDS011;6179;51.748;8.728;2022-12-07T22:39:45;15.83;;;7.10;;
12232;SDS011;6179;51.748;8.728;2022-12-07T22:45:53;14.30;;;6.57;;
12232;SDS011;6179;51.748;8.728;2022-12-07T22:51:58;21.50;;;7.73;;
12232;SDS011;6179;51.748;8.728;2022-12-07T22:57:59;15.03;;;8.13;;
12232;SDS011;6179;51.748;8.728;2022-12-07T23:04:00;22.90;;;9.17;;
12232;SDS011;6179;51.748;8.728;2022-12-07T23:10:01;13.87;;;8.63;;
12232;SDS011;6179;51.748;8.728;2022-12-07T23:16:08;14.53;;;8.07;;
12232;SDS011;6179;51.748;8.728;2022-12-07T23:22:14;27.77;;;11.00;;
12232;SDS011;6179;51.748;8.728;2022-12-07T23:28:15;24.87;;;9.50;;
12232;SDS011;6179;51.748;8.728;2022-12-07T23:34:16;27.83;;;10.63;;
12232;SDS011;6179;51.748;8.728;2022-12-07T23:40:16;27.63;;;11.60;;
12232;SDS011;6179;51.748;8.728;2022-12-07T23:46:18;24.17;;;10.73;;
12232;SDS011;6179;51.748;8.728;2022-12-07T23:52:22;35.50;;;12.07;;
12232;SDS011;6179;51.748;8.728;2022-12-07T23:58:23;34.70;;;12.30;;
